Garrett, Indiana
Current Conditions -  °F | °C
As of 3:15 AM on Friday 31 Oct 2014 (Local Time) from KGWB Reporting Station
Overcast Overcast  
Wind Chill: 43°   Ceiling: 7000
Heat Index: 43°   Visibility: 10mi
Dew Point: 36°   Wind: 3mph
Humidity: 76%   Direction: 210°SSW
Pressure: 30"   Gusts: NA
Location:  41.35°N, 85.13°W
Report Text: KGWB 310715Z AUTO 21003KT 10SM OVC070 06/02 A3000 RMK AO2
Loading
Personal Weather Stations






























Interactive Weather Map
Tropical Storm Tracking
New forecast layout! Learn more

10-Day Weather Forecast

Advertisements
Track Severe Weather on mobile